createdAt,value
2022-10-13T00:01:14.652Z,20.83
2022-10-13T00:03:46.122Z,19.30
2022-10-13T00:06:24.983Z,25.33
2022-10-13T00:08:53.894Z,22.33
2022-10-13T00:11:24.662Z,21.30
2022-10-13T00:13:56.037Z,18.60
2022-10-13T00:16:24.511Z,21.07
2022-10-13T00:18:53.393Z,18.90
2022-10-13T00:21:26.136Z,22.20
2022-10-13T00:23:55.449Z,19.90
2022-10-13T00:26:25.286Z,21.83
2022-10-13T00:28:54.899Z,19.47
2022-10-13T00:31:24.857Z,17.90
2022-10-13T00:33:53.899Z,19.63
2022-10-13T00:36:24.475Z,16.40
2022-10-13T00:38:53.438Z,20.93
2022-10-13T00:41:23.148Z,25.97
2022-10-13T00:44:00.399Z,18.57
2022-10-13T00:46:30.381Z,18.20
2022-10-13T00:49:01.968Z,16.77
2022-10-13T00:51:35.874Z,22.30
2022-10-13T00:54:06.768Z,17.40
2022-10-13T00:56:37.521Z,20.30
2022-10-13T00:59:13.474Z,17.83
2022-10-13T01:01:42.497Z,17.03
2022-10-13T01:04:11.611Z,15.60
2022-10-13T01:06:41.524Z,15.30
2022-10-13T01:09:09.745Z,16.73
2022-10-13T01:11:57.227Z,16.70
2022-10-13T01:14:31.344Z,20.70
2022-10-13T01:17:07.054Z,24.53
2022-10-13T01:20:05.661Z,19.93
2022-10-13T01:22:46.788Z,33.13
2022-10-13T01:25:35.132Z,20.13
2022-10-13T01:28:28.363Z,20.73
2022-10-13T01:31:03.039Z,23.13
2022-10-13T01:33:40.016Z,22.00
2022-10-13T01:36:18.525Z,17.90
2022-10-13T01:38:52.395Z,17.13
2022-10-13T01:41:26.836Z,15.07
2022-10-13T01:44:03.490Z,22.90
2022-10-13T01:46:36.715Z,15.83
2022-10-13T01:49:08.607Z,17.70
2022-10-13T01:51:37.614Z,18.30
2022-10-13T01:54:05.809Z,16.57
2022-10-13T01:56:34.036Z,15.03
2022-10-13T01:59:06.751Z,14.30
2022-10-13T02:01:49.403Z,14.90
2022-10-13T02:04:31.182Z,17.50
2022-10-13T02:09:44.735Z,15.53
2022-10-13T02:12:25.590Z,18.83
2022-10-13T02:14:56.747Z,20.40
2022-10-13T02:17:27.439Z,13.97
2022-10-13T02:19:56.895Z,14.50
2022-10-13T02:22:30.676Z,15.53
2022-10-13T02:25:00.658Z,19.60
2022-10-13T02:27:29.646Z,19.23
2022-10-13T02:29:59.017Z,13.40
2022-10-13T02:32:32.255Z,15.33
2022-10-13T02:35:01.134Z,13.73
2022-10-13T02:37:29.291Z,19.50
2022-10-13T02:39:57.490Z,27.27
2022-10-13T02:42:25.670Z,26.30
2022-10-13T02:44:56.961Z,20.27
2022-10-13T02:47:25.254Z,12.70
2022-10-13T02:49:54.926Z,24.00
2022-10-13T02:52:23.298Z,22.10
2022-10-13T02:54:51.756Z,14.53
2022-10-13T02:57:20.280Z,16.73
2022-10-13T02:59:49.357Z,24.13
2022-10-13T03:02:18.714Z,15.30
2022-10-13T03:04:47.454Z,18.63
2022-10-13T03:07:16.961Z,16.23
2022-10-13T03:09:45.063Z,16.53
2022-10-13T03:12:13.310Z,26.13
2022-10-13T03:14:41.429Z,26.43
2022-10-13T03:17:13.260Z,35.70
2022-10-13T03:19:41.752Z,26.97
2022-10-13T03:22:15.451Z,25.53
2022-10-13T03:24:45.109Z,29.13
2022-10-13T03:27:13.618Z,18.50
2022-10-13T03:29:41.747Z,23.20
2022-10-13T03:32:10.286Z,16.17
2022-10-13T03:34:38.373Z,17.00
2022-10-13T03:37:06.489Z,17.83
2022-10-13T03:39:40.656Z,16.33
2022-10-13T03:42:11.718Z,17.60
2022-10-13T03:44:40.796Z,16.30
2022-10-13T03:47:09.031Z,19.90
2022-10-13T03:49:38.569Z,19.20
2022-10-13T03:52:06.798Z,22.93
2022-10-13T03:54:35.185Z,21.70
2022-10-13T03:57:03.993Z,21.80
2022-10-13T03:59:36.799Z,20.93
2022-10-13T04:02:05.706Z,18.27
2022-10-13T04:04:35.226Z,18.23
2022-10-13T04:07:03.382Z,16.47
2022-10-13T04:09:31.703Z,18.30
2022-10-13T04:12:00.360Z,20.57
2022-10-13T04:14:28.611Z,19.80
2022-10-13T04:17:03.996Z,19.93
2022-10-13T04:19:32.162Z,16.70
2022-10-13T04:22:07.154Z,15.60
2022-10-13T04:24:35.939Z,17.27
2022-10-13T04:27:04.126Z,15.60
2022-10-13T04:29:32.322Z,18.73
2022-10-13T04:32:00.606Z,18.97
2022-10-13T04:34:30.118Z,20.60
2022-10-13T04:36:58.557Z,17.47
2022-10-13T04:39:26.632Z,25.63
2022-10-13T04:41:55.789Z,16.57
2022-10-13T04:44:24.119Z,26.47
2022-10-13T04:46:52.235Z,16.47
2022-10-13T04:49:20.638Z,16.90
2022-10-13T04:51:50.083Z,17.03
2022-10-13T04:54:18.244Z,15.93
2022-10-13T04:56:46.934Z,21.40
2022-10-13T04:59:15.160Z,18.27
2022-10-13T05:01:43.439Z,17.90
2022-10-13T05:04:14.735Z,54.53
2022-10-13T05:09:33.726Z,17.50
2022-10-13T05:12:02.038Z,27.63
2022-10-13T05:14:31.120Z,32.97
2022-10-13T05:17:02.035Z,21.03
2022-10-13T05:19:30.660Z,20.73
2022-10-13T05:21:59.402Z,28.93
2022-10-13T05:24:36.571Z,30.03
2022-10-13T05:27:07.379Z,25.20
2022-10-13T05:29:35.643Z,21.93
2022-10-13T05:32:04.400Z,22.40
2022-10-13T05:34:33.518Z,21.60
2022-10-13T05:37:02.040Z,31.47
2022-10-13T05:39:30.513Z,36.20
2022-10-13T05:41:58.622Z,29.47
2022-10-13T05:44:28.281Z,26.33
2022-10-13T05:46:56.802Z,26.60
2022-10-13T05:49:25.433Z,29.40
2022-10-13T05:51:57.563Z,22.40
2022-10-13T05:54:30.974Z,24.10
2022-10-13T05:57:03.965Z,26.23
2022-10-13T05:59:37.319Z,18.63
2022-10-13T06:02:07.432Z,29.87
2022-10-13T06:04:40.327Z,30.40
2022-10-13T06:07:10.057Z,31.37
2022-10-13T06:09:40.697Z,23.90
2022-10-13T06:12:10.157Z,20.70
2022-10-13T06:14:39.698Z,21.10
2022-10-13T06:17:08.395Z,17.23
2022-10-13T06:19:36.574Z,24.73
2022-10-13T06:22:09.037Z,24.30
2022-10-13T06:24:37.244Z,23.40
2022-10-13T06:27:08.497Z,19.23
2022-10-13T06:29:39.011Z,49.17
2022-10-13T06:32:07.786Z,18.63
2022-10-13T06:34:36.019Z,20.33
2022-10-13T06:37:04.092Z,21.53
2022-10-13T06:39:32.234Z,18.50
2022-10-13T06:42:03.558Z,20.43
2022-10-13T06:44:32.718Z,19.53
2022-10-13T06:47:05.947Z,17.83
2022-10-13T06:49:34.360Z,16.73
2022-10-13T06:52:02.626Z,22.47
2022-10-13T06:54:30.777Z,16.70
2022-10-13T06:56:58.916Z,19.03
2022-10-13T06:59:27.816Z,16.03
2022-10-13T07:01:55.980Z,16.70
2022-10-13T07:04:28.019Z,14.67
2022-10-13T07:06:59.192Z,20.37
2022-10-13T07:09:27.725Z,20.33
2022-10-13T07:11:55.836Z,18.47
2022-10-13T07:14:24.059Z,16.73
2022-10-13T07:16:52.431Z,16.20
2022-10-13T07:19:20.637Z,16.00
2022-10-13T07:21:50.245Z,16.20
2022-10-13T07:24:18.506Z,19.37
2022-10-13T07:26:46.694Z,20.13
2022-10-13T07:29:14.984Z,22.43
2022-10-13T07:31:44.733Z,14.23
2022-10-13T07:34:13.642Z,17.10
2022-10-13T07:36:41.897Z,14.87
2022-10-13T07:39:11.407Z,17.97
2022-10-13T07:41:39.509Z,15.50
2022-10-13T07:44:07.911Z,24.27
2022-10-13T07:46:36.043Z,19.03
2022-10-13T07:49:04.292Z,14.83
2022-10-13T07:51:32.389Z,15.77
2022-10-13T07:54:00.529Z,16.70
2022-10-13T07:56:29.998Z,16.60
2022-10-13T07:58:58.178Z,16.03
2022-10-13T08:01:26.451Z,22.33
2022-10-13T08:03:56.694Z,21.60
2022-10-13T08:06:24.888Z,21.63
2022-10-13T08:08:55.457Z,15.60
2022-10-13T08:11:24.650Z,20.20
2022-10-13T08:13:55.900Z,35.57
2022-10-13T08:16:24.539Z,16.67
2022-10-13T08:18:52.999Z,25.33
2022-10-13T08:24:13.437Z,21.13
2022-10-13T08:26:42.115Z,22.80
2022-10-13T08:29:28.129Z,16.23
2022-10-13T08:31:56.793Z,40.00
2022-10-13T08:34:25.818Z,44.10
2022-10-13T08:36:56.370Z,96.27
2022-10-13T08:39:25.572Z,392.03
2022-10-13T08:41:55.140Z,528.80
2022-10-13T08:45:06.374Z,493.73
2022-10-13T08:47:35.898Z,605.87
2022-10-13T08:50:11.654Z,529.63
2022-10-13T08:52:50.302Z,661.77
2022-10-13T08:55:31.619Z,695.80
2022-10-13T08:58:01.810Z,711.27
2022-10-13T09:00:31.578Z,682.83
2022-10-13T09:03:25.390Z,595.53
2022-10-13T09:06:03.784Z,660.67
2022-10-13T09:08:39.199Z,645.70
2022-10-13T09:11:07.712Z,586.47
2022-10-13T09:13:35.946Z,673.13
2022-10-13T09:16:05.891Z,624.33
2022-10-13T09:18:34.603Z,570.87
2022-10-13T09:21:26.663Z,664.50
2022-10-13T09:24:08.130Z,795.57
2022-10-13T09:26:39.412Z,677.77
2022-10-13T09:29:10.275Z,745.27
2022-10-13T09:31:39.803Z,782.73
2022-10-13T09:34:24.165Z,692.47
2022-10-13T09:37:00.258Z,609.50
2022-10-13T09:39:29.426Z,340.60
2022-10-13T09:42:21.300Z,365.83
2022-10-13T09:44:58.066Z,539.63
2022-10-13T09:47:33.025Z,533.10
2022-10-13T09:50:07.336Z,437.37
2022-10-13T09:52:36.155Z,476.37
2022-10-13T09:55:27.586Z,747.63
2022-10-13T09:58:05.787Z,716.97
2022-10-13T10:00:34.696Z,655.77
2022-10-13T10:03:09.159Z,603.00
2022-10-13T10:05:45.810Z,863.97
2022-10-13T10:08:28.776Z,896.77
2022-10-13T10:11:04.338Z,999.90
2022-10-13T10:13:32.540Z,999.50
2022-10-13T10:16:07.789Z,999.90
2022-10-13T10:18:44.089Z,990.53
2022-10-13T10:21:25.163Z,999.90
2022-10-13T10:24:14.501Z,329.17
2022-10-13T10:26:52.171Z,187.00
2022-10-13T10:29:30.422Z,170.20
2022-10-13T10:32:06.385Z,231.60
2022-10-13T10:34:46.670Z,269.43
2022-10-13T10:37:22.740Z,224.70
2022-10-13T10:40:02.606Z,174.03
2022-10-13T10:42:55.498Z,75.83
2022-10-13T10:45:27.342Z,127.63
2022-10-13T10:48:00.329Z,114.60
2022-10-13T10:50:31.254Z,172.40
2022-10-13T10:53:03.549Z,162.33
2022-10-13T10:55:36.546Z,157.77
2022-10-13T10:58:22.399Z,279.03
2022-10-13T11:01:00.125Z,289.67
2022-10-13T11:03:41.296Z,297.47
2022-10-13T11:06:32.898Z,257.17
2022-10-13T11:09:01.808Z,388.50
2022-10-13T11:11:37.822Z,392.23
2022-10-13T11:14:30.103Z,375.30
2022-10-13T11:17:20.254Z,324.83
2022-10-13T11:19:49.443Z,386.57
2022-10-13T11:22:24.245Z,206.43
2022-10-13T11:25:01.679Z,234.40
2022-10-13T11:27:44.252Z,363.87
2022-10-13T11:30:47.195Z,377.47
2022-10-13T11:33:36.622Z,360.37
2022-10-13T11:36:31.270Z,330.90
2022-10-13T11:39:12.677Z,324.73
2022-10-13T11:41:52.243Z,381.37
2022-10-13T11:47:08.164Z,307.97
2022-10-13T11:50:01.456Z,568.13
2022-10-13T11:52:58.664Z,319.20
2022-10-13T11:55:39.903Z,472.63
2022-10-13T11:58:10.016Z,591.73
2022-10-13T12:00:38.365Z,716.40
2022-10-13T12:03:06.814Z,644.07
2022-10-13T12:05:35.925Z,674.87
2022-10-13T12:08:05.668Z,621.10
2022-10-13T12:10:37.934Z,483.53
2022-10-13T12:13:08.902Z,632.63
2022-10-13T12:15:38.936Z,726.70
2022-10-13T12:18:23.504Z,713.53
2022-10-13T12:20:56.681Z,833.97
2022-10-13T12:23:25.485Z,891.10
2022-10-13T12:25:58.446Z,870.60
2022-10-13T12:28:29.110Z,740.40
2022-10-13T12:30:59.811Z,738.93
2022-10-13T12:33:31.957Z,675.40
2022-10-13T12:36:14.375Z,765.07
2022-10-13T12:38:48.161Z,743.53
2022-10-13T12:41:25.972Z,754.33
2022-10-13T12:43:55.597Z,819.80
2022-10-13T12:46:36.726Z,834.40
2022-10-13T12:49:06.483Z,869.17
2022-10-13T12:51:37.780Z,868.53
2022-10-13T12:54:10.456Z,944.50
2022-10-13T12:56:43.543Z,940.70
2022-10-13T12:59:17.258Z,899.30
2022-10-13T13:01:55.636Z,933.30
2022-10-13T13:04:42.239Z,897.00
2022-10-13T13:07:30.659Z,878.67
2022-10-13T13:10:11.688Z,975.33
2022-10-13T13:12:41.631Z,980.60
2022-10-13T13:15:35.288Z,999.90
2022-10-13T13:18:31.454Z,999.90
2022-10-13T13:21:01.825Z,999.90
2022-10-13T13:23:34.292Z,999.90
2022-10-13T13:26:12.182Z,999.90
2022-10-13T13:28:45.778Z,999.90
2022-10-13T13:31:16.099Z,999.90
2022-10-13T13:33:44.295Z,976.63
2022-10-13T13:36:16.931Z,997.03
2022-10-13T13:38:47.805Z,962.97
2022-10-13T13:41:16.956Z,999.90
2022-10-13T13:43:47.071Z,999.90
2022-10-13T13:46:18.880Z,948.20
2022-10-13T13:48:47.092Z,999.67
2022-10-13T13:51:15.320Z,990.60
2022-10-13T13:53:46.101Z,999.90
2022-10-13T13:56:15.403Z,999.90
2022-10-13T13:58:43.982Z,999.90
2022-10-13T14:01:14.379Z,993.83
2022-10-13T14:03:42.749Z,999.90
2022-10-13T14:06:18.021Z,999.90
2022-10-13T14:08:47.220Z,999.90
2022-10-13T14:11:20.736Z,993.70
2022-10-13T14:13:51.186Z,999.90
2022-10-13T14:16:35.322Z,999.90
2022-10-13T14:19:13.623Z,999.90
2022-10-13T14:21:45.553Z,999.90
2022-10-13T14:24:21.789Z,999.90
2022-10-13T14:26:53.956Z,999.90
2022-10-13T14:29:22.251Z,999.90
2022-10-13T14:31:55.281Z,999.90
2022-10-13T14:34:23.452Z,999.90
2022-10-13T14:36:55.796Z,999.90
2022-10-13T14:39:24.065Z,999.90
2022-10-13T14:41:54.144Z,999.90
2022-10-13T14:44:31.667Z,999.90
2022-10-13T14:47:11.856Z,999.90
2022-10-13T14:49:44.623Z,999.90
2022-10-13T14:52:12.891Z,999.90
2022-10-13T14:54:45.027Z,999.90
2022-10-13T14:57:16.574Z,999.90
2022-10-13T14:59:47.341Z,999.90
2022-10-13T15:02:18.133Z,999.90
2022-10-13T15:04:54.178Z,999.90
2022-10-13T15:07:31.449Z,999.90
2022-10-13T15:10:06.135Z,999.90
2022-10-13T15:12:36.630Z,984.40
2022-10-13T15:15:06.031Z,981.87
2022-10-13T15:17:40.324Z,999.90
2022-10-13T15:20:17.967Z,999.90
2022-10-13T15:22:49.143Z,937.53
2022-10-13T15:25:19.526Z,994.27
2022-10-13T15:27:52.668Z,949.03
2022-10-13T15:30:25.708Z,960.33
2022-10-13T15:32:55.167Z,908.13
2022-10-13T15:35:23.238Z,789.03
2022-10-13T15:37:51.430Z,874.60
2022-10-13T15:40:19.565Z,840.43
2022-10-13T15:42:47.895Z,559.70
2022-10-13T15:45:16.258Z,391.07
2022-10-13T15:47:44.310Z,248.57
2022-10-13T15:50:39.432Z,172.17
2022-10-13T15:53:07.623Z,224.27
2022-10-13T15:55:35.824Z,165.50
2022-10-13T15:58:04.024Z,130.53
2022-10-13T16:00:32.191Z,97.83
2022-10-13T16:03:00.582Z,71.30
2022-10-13T16:05:28.687Z,72.63
2022-10-13T16:07:58.177Z,64.93
2022-10-13T16:10:27.341Z,52.97
2022-10-13T16:12:55.563Z,42.80
2022-10-13T16:15:23.713Z,68.73
2022-10-13T16:17:53.253Z,88.90
2022-10-13T16:20:21.396Z,47.03
2022-10-13T16:22:49.349Z,74.43
2022-10-13T16:25:18.851Z,113.30
2022-10-13T16:27:47.007Z,69.80
2022-10-13T16:30:15.181Z,66.37
2022-10-13T16:32:43.298Z,52.33
2022-10-13T16:35:11.776Z,61.73
2022-10-13T16:37:39.945Z,76.57
2022-10-13T16:40:09.383Z,105.37
2022-10-13T16:42:38.954Z,90.63
2022-10-13T16:45:08.394Z,117.33
2022-10-13T16:47:36.523Z,96.07
2022-10-13T16:50:09.257Z,87.50
2022-10-13T16:52:37.517Z,84.97
2022-10-13T16:55:06.683Z,102.63
2022-10-13T16:57:34.747Z,109.77
2022-10-13T17:00:12.689Z,137.83
2022-10-13T17:02:44.401Z,102.27
2022-10-13T17:05:26.398Z,113.40
2022-10-13T17:08:03.731Z,129.87
2022-10-13T17:10:31.964Z,146.73
2022-10-13T17:16:58.040Z,56.70
2022-10-13T17:19:26.894Z,130.30
2022-10-13T17:21:55.041Z,104.73
2022-10-13T17:24:23.438Z,126.63
2022-10-13T17:26:51.586Z,112.90
2022-10-13T17:29:19.743Z,128.47
2022-10-13T17:31:48.125Z,107.93
2022-10-13T17:34:17.867Z,98.10
2022-10-13T17:36:45.928Z,97.20
2022-10-13T17:39:14.222Z,81.37
2022-10-13T17:41:43.156Z,83.03
2022-10-13T17:44:11.695Z,73.03
2022-10-13T17:46:40.102Z,82.13
2022-10-13T17:49:10.795Z,75.37
2022-10-13T17:51:40.800Z,55.60
2022-10-13T17:54:13.071Z,47.23
2022-10-13T17:56:45.160Z,95.27
2022-10-13T17:59:13.534Z,52.47
2022-10-13T18:01:42.507Z,64.57
2022-10-13T18:04:13.264Z,68.53
2022-10-13T18:06:44.632Z,66.77
2022-10-13T18:09:17.068Z,62.43
2022-10-13T18:11:50.271Z,63.57
2022-10-13T18:14:19.614Z,89.93
2022-10-13T18:16:50.140Z,67.10
2022-10-13T18:19:18.560Z,88.40
2022-10-13T18:21:48.866Z,62.33
2022-10-13T18:24:17.268Z,72.17
2022-10-13T18:26:45.886Z,53.90
2022-10-13T18:29:14.341Z,70.27
2022-10-13T18:31:44.409Z,66.20
2022-10-13T18:34:15.173Z,57.20
2022-10-13T18:36:47.157Z,76.13
2022-10-13T18:39:18.760Z,80.50
2022-10-13T18:41:51.209Z,64.73
2022-10-13T18:44:19.973Z,64.23
2022-10-13T18:46:50.587Z,61.67
2022-10-13T18:49:21.428Z,46.33
2022-10-13T18:51:51.825Z,35.77
2022-10-13T18:54:21.301Z,40.90
2022-10-13T18:56:49.901Z,48.30
2022-10-13T18:59:18.189Z,35.90
2022-10-13T19:01:46.570Z,59.77
2022-10-13T19:04:16.681Z,63.40
2022-10-13T19:06:46.375Z,50.87
2022-10-13T19:09:17.510Z,48.87
2022-10-13T19:11:47.257Z,63.20
2022-10-13T19:14:17.497Z,63.37
2022-10-13T19:16:45.713Z,71.70
2022-10-13T19:19:14.440Z,58.47
2022-10-13T19:21:42.979Z,62.43
2022-10-13T19:24:12.372Z,49.63
2022-10-13T19:26:40.640Z,65.47
2022-10-13T19:29:12.516Z,51.27
2022-10-13T19:31:42.285Z,48.03
2022-10-13T19:34:12.311Z,57.37
2022-10-13T19:36:43.331Z,48.00
2022-10-13T19:39:16.102Z,41.73
2022-10-13T19:41:44.476Z,57.87
2022-10-13T19:44:14.504Z,40.80
2022-10-13T19:46:45.130Z,42.70
2022-10-13T19:49:16.550Z,44.50
2022-10-13T19:51:49.160Z,51.40
2022-10-13T19:54:18.702Z,39.63
2022-10-13T19:56:48.387Z,60.37
2022-10-13T19:59:20.599Z,57.67
2022-10-13T20:01:48.919Z,38.33
2022-10-13T20:04:20.477Z,49.53
2022-10-13T20:06:49.636Z,41.47
2022-10-13T20:09:18.236Z,56.23
2022-10-13T20:11:47.782Z,39.03
2022-10-13T20:14:18.559Z,30.40
2022-10-13T20:16:47.316Z,51.43
2022-10-13T20:19:19.352Z,29.37
2022-10-13T20:21:51.561Z,37.47
2022-10-13T20:24:20.540Z,34.10
2022-10-13T20:26:50.129Z,32.57
2022-10-13T20:29:24.753Z,32.70
2022-10-13T20:31:53.037Z,50.23
2022-10-13T20:34:21.632Z,46.90
2022-10-13T20:36:51.113Z,73.10
2022-10-13T20:39:19.366Z,46.63
2022-10-13T20:41:47.554Z,32.43
2022-10-13T20:44:15.757Z,32.47
2022-10-13T20:46:45.392Z,23.33
2022-10-13T20:49:13.826Z,19.63
2022-10-13T20:51:42.903Z,20.47
2022-10-13T20:54:12.020Z,23.77
2022-10-13T20:56:40.298Z,36.70
2022-10-13T20:59:10.807Z,23.87
2022-10-13T21:01:39.762Z,48.33
2022-10-13T21:04:09.240Z,29.33
2022-10-13T21:06:37.359Z,34.53
2022-10-13T21:09:06.308Z,32.77
2022-10-13T21:11:34.826Z,33.87
2022-10-13T21:14:06.485Z,42.50
2022-10-13T21:16:35.144Z,48.87
2022-10-13T21:19:05.837Z,49.20
2022-10-13T21:21:36.908Z,56.73
2022-10-13T21:24:08.051Z,56.23
2022-10-13T21:26:36.372Z,52.53
2022-10-13T21:29:05.157Z,30.70
2022-10-13T21:31:35.512Z,36.57
2022-10-13T21:34:03.903Z,32.57
2022-10-13T21:36:33.790Z,43.07
2022-10-13T21:39:05.353Z,48.80
2022-10-13T21:41:34.652Z,40.63
2022-10-13T21:44:03.328Z,18.73
2022-10-13T21:46:35.815Z,22.30
2022-10-13T21:49:06.271Z,24.90
2022-10-13T21:51:37.438Z,27.53
2022-10-13T21:54:10.071Z,40.17
2022-10-13T21:56:39.612Z,28.87
2022-10-13T21:59:08.459Z,27.77
2022-10-13T22:01:36.843Z,27.77
2022-10-13T22:04:15.362Z,18.53
2022-10-13T22:06:44.330Z,19.43
2022-10-13T22:09:14.403Z,29.93
2022-10-13T22:11:43.764Z,24.47
2022-10-13T22:14:12.082Z,36.17
2022-10-13T22:16:41.883Z,34.30
2022-10-13T22:19:10.593Z,47.53
2022-10-13T22:21:42.875Z,97.80
2022-10-13T22:24:15.382Z,87.63
2022-10-13T22:26:44.880Z,61.83
2022-10-13T22:29:15.892Z,50.70
2022-10-13T22:31:44.909Z,111.33
2022-10-13T22:34:13.881Z,72.67
2022-10-13T22:36:44.816Z,59.97
2022-10-13T22:39:15.604Z,72.40
2022-10-13T22:41:44.506Z,66.47
2022-10-13T22:44:13.448Z,95.73
2022-10-13T22:46:42.092Z,96.87
2022-10-13T22:49:14.718Z,91.57
2022-10-13T22:51:42.958Z,132.17
2022-10-13T22:54:11.591Z,160.20
2022-10-13T22:56:42.344Z,128.87
2022-10-13T22:59:10.599Z,147.20
2022-10-13T23:01:38.809Z,183.57
2022-10-13T23:04:07.413Z,188.00
2022-10-13T23:06:36.331Z,213.77
2022-10-13T23:09:10.236Z,168.63
2022-10-13T23:11:38.594Z,167.00
2022-10-13T23:14:09.455Z,209.00
2022-10-13T23:16:37.597Z,227.67
2022-10-13T23:19:05.823Z,226.77
2022-10-13T23:21:34.048Z,253.43
2022-10-13T23:24:04.440Z,215.37
2022-10-13T23:26:33.457Z,245.13
2022-10-13T23:29:01.755Z,219.13
2022-10-13T23:31:31.877Z,259.07
2022-10-13T23:34:00.078Z,265.30
2022-10-13T23:36:31.197Z,312.03
2022-10-13T23:39:01.872Z,241.43
2022-10-13T23:41:30.377Z,253.33
2022-10-13T23:43:58.941Z,256.17
2022-10-13T23:46:27.725Z,290.87
2022-10-13T23:48:57.752Z,309.50
2022-10-13T23:51:26.847Z,311.10
2022-10-13T23:53:55.569Z,279.57
2022-10-13T23:56:24.251Z,286.93
2022-10-13T23:58:52.474Z,327.60
